sensor_id;sensor_type;location;lat;lon;timestamp;P1;durP1;ratioP1;P2;durP2;ratioP2
7523;SDS011;3803;51.666;7.630;2022-07-26T00:00:22;2.63;;;2.10;;
7523;SDS011;3803;51.666;7.630;2022-07-26T00:00:48;2.80;;;2.13;;
7523;SDS011;3803;51.666;7.630;2022-07-26T00:01:17;2.20;;;1.90;;
7523;SDS011;3803;51.666;7.630;2022-07-26T00:01:41;2.30;;;2.10;;
7523;SDS011;3803;51.666;7.630;2022-07-26T00:02:06;2.55;;;2.03;;
7523;SDS011;3803;51.666;7.630;2022-07-26T00:02:27;2.75;;;2.00;;
7523;SDS011;3803;51.666;7.630;2022-07-26T00:02:50;2.80;;;1.90;;
7523;SDS011;3803;51.666;7.630;2022-07-26T00:03:24;2.20;;;1.90;;
7523;SDS011;3803;51.666;7.630;2022-07-26T00:03:46;2.28;;;1.90;;
7523;SDS011;3803;51.666;7.630;2022-07-26T00:04:08;3.00;;;2.10;;
7523;SDS011;3803;51.666;7.630;2022-07-26T00:04:40;3.20;;;2.20;;
7523;SDS011;3803;51.666;7.630;2022-07-26T00:05:04;3.38;;;2.10;;
7523;SDS011;3803;51.666;7.630;2022-07-26T00:05:30;3.30;;;2.30;;
7523;SDS011;3803;51.666;7.630;2022-07-26T00:05:51;3.28;;;2.30;;
7523;SDS011;3803;51.666;7.630;2022-07-26T00:06:11;3.50;;;2.10;;
7523;SDS011;3803;51.666;7.630;2022-07-26T00:06:35;4.03;;;2.17;;
7523;SDS011;3803;51.666;7.630;2022-07-26T00:07:20;2.45;;;1.85;;
7523;SDS011;3803;51.666;7.630;2022-07-26T00:07:41;2.38;;;2.15;;
7523;SDS011;3803;51.666;7.630;2022-07-26T00:08:09;2.50;;;2.30;;
7523;SDS011;3803;51.666;7.630;2022-07-26T00:08:30;3.20;;;2.20;;
7523;SDS011;3803;51.666;7.630;2022-07-26T00:08:54;2.58;;;2.00;;
7523;SDS011;3803;51.666;7.630;2022-07-26T00:09:17;2.63;;;2.00;;
7523;SDS011;3803;51.666;7.630;2022-07-26T00:09:41;3.38;;;2.03;;
7523;SDS011;3803;51.666;7.630;2022-07-26T00:10:04;3.10;;;2.10;;
7523;SDS011;3803;51.666;7.630;2022-07-26T00:10:38;2.53;;;2.10;;
7523;SDS011;3803;51.666;7.630;2022-07-26T00:11:23;2.92;;;2.00;;
7523;SDS011;3803;51.666;7.630;2022-07-26T00:11:50;4.47;;;2.10;;
7523;SDS011;3803;51.666;7.630;2022-07-26T00:12:15;4.38;;;2.38;;
7523;SDS011;3803;51.666;7.630;2022-07-26T00:12:36;3.97;;;2.30;;
7523;SDS011;3803;51.666;7.630;2022-07-26T00:12:59;4.10;;;2.25;;
7523;SDS011;3803;51.666;7.630;2022-07-26T00:13:20;5.00;;;2.40;;
7523;SDS011;3803;51.666;7.630;2022-07-26T00:13:41;5.90;;;2.35;;
7523;SDS011;3803;51.666;7.630;2022-07-26T00:14:31;4.93;;;2.42;;
7523;SDS011;3803;51.666;7.630;2022-07-26T00:15:01;4.68;;;2.50;;
7523;SDS011;3803;51.666;7.630;2022-07-26T00:15:33;4.57;;;2.25;;
7523;SDS011;3803;51.666;7.630;2022-07-26T00:16:02;3.45;;;2.10;;
7523;SDS011;3803;51.666;7.630;2022-07-26T00:16:34;3.55;;;2.30;;
7523;SDS011;3803;51.666;7.630;2022-07-26T00:17:00;4.05;;;2.50;;
7523;SDS011;3803;51.666;7.630;2022-07-26T00:17:28;4.45;;;2.47;;
7523;SDS011;3803;51.666;7.630;2022-07-26T00:17:59;3.90;;;2.30;;
7523;SDS011;3803;51.666;7.630;2022-07-26T00:18:24;3.60;;;2.20;;
7523;SDS011;3803;51.666;7.630;2022-07-26T00:18:57;3.75;;;2.20;;
7523;SDS011;3803;51.666;7.630;2022-07-26T00:19:21;4.43;;;2.08;;
7523;SDS011;3803;51.666;7.630;2022-07-26T00:19:42;4.45;;;2.28;;
7523;SDS011;3803;51.666;7.630;2022-07-26T00:20:12;6.43;;;2.47;;
7523;SDS011;3803;51.666;7.630;2022-07-26T00:20:41;6.60;;;2.47;;
7523;SDS011;3803;51.666;7.630;2022-07-26T00:21:17;4.90;;;2.20;;
7523;SDS011;3803;51.666;7.630;2022-07-26T00:21:40;3.72;;;2.10;;
7523;SDS011;3803;51.666;7.630;2022-07-26T00:22:28;4.70;;;2.40;;
7523;SDS011;3803;51.666;7.630;2022-07-26T00:23:09;3.88;;;2.40;;
7523;SDS011;3803;51.666;7.630;2022-07-26T00:23:38;2.58;;;2.30;;
7523;SDS011;3803;51.666;7.630;2022-07-26T00:24:05;4.00;;;2.50;;
7523;SDS011;3803;51.666;7.630;2022-07-26T00:24:54;6.00;;;2.53;;
7523;SDS011;3803;51.666;7.630;2022-07-26T00:25:15;4.35;;;2.50;;
7523;SDS011;3803;51.666;7.630;2022-07-26T00:25:54;3.63;;;2.25;;
7523;SDS011;3803;51.666;7.630;2022-07-26T00:26:20;3.38;;;2.10;;
7523;SDS011;3803;51.666;7.630;2022-07-26T00:26:43;3.72;;;2.20;;
7523;SDS011;3803;51.666;7.630;2022-07-26T00:27:07;4.60;;;2.20;;
7523;SDS011;3803;51.666;7.630;2022-07-26T00:27:32;4.68;;;2.10;;
7523;SDS011;3803;51.666;7.630;2022-07-26T00:27:56;5.47;;;2.10;;
7523;SDS011;3803;51.666;7.630;2022-07-26T00:28:17;5.13;;;2.20;;
7523;SDS011;3803;51.666;7.630;2022-07-26T00:29:24;5.38;;;2.28;;
7523;SDS011;3803;51.666;7.630;2022-07-26T00:29:55;5.18;;;2.20;;
7523;SDS011;3803;51.666;7.630;2022-07-26T00:30:21;3.90;;;2.30;;
7523;SDS011;3803;51.666;7.630;2022-07-26T00:31:25;5.57;;;2.20;;
7523;SDS011;3803;51.666;7.630;2022-07-26T00:31:53;4.85;;;2.30;;
7523;SDS011;3803;51.666;7.630;2022-07-26T00:32:14;4.65;;;2.40;;
7523;SDS011;3803;51.666;7.630;2022-07-26T00:32:42;5.03;;;2.50;;
7523;SDS011;3803;51.666;7.630;2022-07-26T00:33:15;5.10;;;2.30;;
7523;SDS011;3803;51.666;7.630;2022-07-26T00:33:36;5.22;;;2.13;;
7523;SDS011;3803;51.666;7.630;2022-07-26T00:33:57;5.45;;;2.00;;
7523;SDS011;3803;51.666;7.630;2022-07-26T00:34:18;5.50;;;2.22;;
7523;SDS011;3803;51.666;7.630;2022-07-26T00:34:50;4.57;;;2.45;;
7523;SDS011;3803;51.666;7.630;2022-07-26T00:35:15;6.97;;;2.80;;
7523;SDS011;3803;51.666;7.630;2022-07-26T00:35:50;7.07;;;2.88;;
7523;SDS011;3803;51.666;7.630;2022-07-26T00:36:11;4.93;;;2.60;;
7523;SDS011;3803;51.666;7.630;2022-07-26T00:36:34;5.03;;;2.50;;
7523;SDS011;3803;51.666;7.630;2022-07-26T00:36:55;4.20;;;2.30;;
7523;SDS011;3803;51.666;7.630;2022-07-26T00:37:21;3.35;;;2.20;;
7523;SDS011;3803;51.666;7.630;2022-07-26T00:37:47;5.03;;;2.33;;
7523;SDS011;3803;51.666;7.630;2022-07-26T00:38:10;5.45;;;2.50;;
7523;SDS011;3803;51.666;7.630;2022-07-26T00:38:36;7.05;;;2.53;;
7523;SDS011;3803;51.666;7.630;2022-07-26T00:39:23;6.60;;;2.33;;
7523;SDS011;3803;51.666;7.630;2022-07-26T00:39:56;5.60;;;2.10;;
7523;SDS011;3803;51.666;7.630;2022-07-26T00:40:16;5.35;;;2.40;;
7523;SDS011;3803;51.666;7.630;2022-07-26T00:40:37;6.15;;;2.50;;
7523;SDS011;3803;51.666;7.630;2022-07-26T00:41:04;6.28;;;2.70;;
7523;SDS011;3803;51.666;7.630;2022-07-26T00:41:24;5.47;;;2.50;;
7523;SDS011;3803;51.666;7.630;2022-07-26T00:41:48;6.50;;;2.45;;
7523;SDS011;3803;51.666;7.630;2022-07-26T00:42:09;5.50;;;2.40;;
7523;SDS011;3803;51.666;7.630;2022-07-26T00:42:32;5.00;;;2.40;;
7523;SDS011;3803;51.666;7.630;2022-07-26T00:43:01;5.30;;;2.40;;
7523;SDS011;3803;51.666;7.630;2022-07-26T00:43:26;6.35;;;2.60;;
7523;SDS011;3803;51.666;7.630;2022-07-26T00:43:54;6.15;;;2.53;;
7523;SDS011;3803;51.666;7.630;2022-07-26T00:44:15;5.00;;;2.47;;
7523;SDS011;3803;51.666;7.630;2022-07-26T00:44:42;3.40;;;2.40;;
7523;SDS011;3803;51.666;7.630;2022-07-26T00:45:07;3.00;;;2.30;;
7523;SDS011;3803;51.666;7.630;2022-07-26T00:45:31;5.00;;;2.40;;
7523;SDS011;3803;51.666;7.630;2022-07-26T00:45:52;6.20;;;2.72;;
7523;SDS011;3803;51.666;7.630;2022-07-26T00:46:15;6.60;;;2.90;;
7523;SDS011;3803;51.666;7.630;2022-07-26T00:46:36;5.00;;;2.55;;
7523;SDS011;3803;51.666;7.630;2022-07-26T00:47:11;3.50;;;2.20;;
7523;SDS011;3803;51.666;7.630;2022-07-26T00:47:53;4.30;;;2.33;;
7523;SDS011;3803;51.666;7.630;2022-07-26T00:48:20;4.45;;;2.50;;
7523;SDS011;3803;51.666;7.630;2022-07-26T00:48:43;4.35;;;2.50;;
7523;SDS011;3803;51.666;7.630;2022-07-26T00:49:09;4.38;;;2.60;;
7523;SDS011;3803;51.666;7.630;2022-07-26T00:49:43;5.30;;;2.40;;
7523;SDS011;3803;51.666;7.630;2022-07-26T00:50:15;5.53;;;2.30;;
7523;SDS011;3803;51.666;7.630;2022-07-26T00:50:39;4.25;;;2.53;;
7523;SDS011;3803;51.666;7.630;2022-07-26T00:51:15;4.00;;;2.90;;
7523;SDS011;3803;51.666;7.630;2022-07-26T00:51:49;4.45;;;2.63;;
7523;SDS011;3803;51.666;7.630;2022-07-26T00:53:06;4.85;;;2.33;;
7523;SDS011;3803;51.666;7.630;2022-07-26T00:53:32;5.95;;;2.50;;
7523;SDS011;3803;51.666;7.630;2022-07-26T00:53:55;6.40;;;2.70;;
7523;SDS011;3803;51.666;7.630;2022-07-26T00:54:16;5.68;;;2.70;;
7523;SDS011;3803;51.666;7.630;2022-07-26T00:54:40;5.25;;;2.70;;
7523;SDS011;3803;51.666;7.630;2022-07-26T00:55:05;5.25;;;2.50;;
7523;SDS011;3803;51.666;7.630;2022-07-26T00:55:29;5.40;;;2.50;;
7523;SDS011;3803;51.666;7.630;2022-07-26T00:55:50;5.93;;;2.40;;
7523;SDS011;3803;51.666;7.630;2022-07-26T00:56:15;6.20;;;2.55;;
7523;SDS011;3803;51.666;7.630;2022-07-26T00:56:41;5.32;;;2.35;;
7523;SDS011;3803;51.666;7.630;2022-07-26T00:57:02;5.20;;;2.30;;
7523;SDS011;3803;51.666;7.630;2022-07-26T00:57:27;5.78;;;2.47;;
7523;SDS011;3803;51.666;7.630;2022-07-26T00:58:03;5.13;;;2.30;;
7523;SDS011;3803;51.666;7.630;2022-07-26T00:58:29;4.80;;;2.20;;
7523;SDS011;3803;51.666;7.630;2022-07-26T00:58:56;5.35;;;2.55;;
7523;SDS011;3803;51.666;7.630;2022-07-26T00:59:29;6.70;;;2.60;;
7523;SDS011;3803;51.666;7.630;2022-07-26T00:59:53;5.95;;;2.42;;
7523;SDS011;3803;51.666;7.630;2022-07-26T01:00:17;4.32;;;2.40;;
7523;SDS011;3803;51.666;7.630;2022-07-26T01:00:45;5.35;;;2.47;;
7523;SDS011;3803;51.666;7.630;2022-07-26T01:01:11;5.15;;;2.40;;
7523;SDS011;3803;51.666;7.630;2022-07-26T01:01:31;5.80;;;2.30;;
7523;SDS011;3803;51.666;7.630;2022-07-26T01:02:05;6.88;;;2.70;;
7523;SDS011;3803;51.666;7.630;2022-07-26T01:02:30;6.53;;;2.80;;
7523;SDS011;3803;51.666;7.630;2022-07-26T01:02:57;4.90;;;2.58;;
7523;SDS011;3803;51.666;7.630;2022-07-26T01:03:22;5.60;;;2.33;;
7523;SDS011;3803;51.666;7.630;2022-07-26T01:03:56;4.68;;;2.20;;
7523;SDS011;3803;51.666;7.630;2022-07-26T01:04:25;4.15;;;2.15;;
7523;SDS011;3803;51.666;7.630;2022-07-26T01:04:56;4.95;;;2.40;;
7523;SDS011;3803;51.666;7.630;2022-07-26T01:05:26;4.95;;;2.40;;
7523;SDS011;3803;51.666;7.630;2022-07-26T01:05:49;4.50;;;2.38;;
7523;SDS011;3803;51.666;7.630;2022-07-26T01:06:27;3.92;;;2.60;;
7523;SDS011;3803;51.666;7.630;2022-07-26T01:06:53;6.35;;;2.75;;
7523;SDS011;3803;51.666;7.630;2022-07-26T01:07:18;7.60;;;2.60;;
7523;SDS011;3803;51.666;7.630;2022-07-26T01:07:44;5.03;;;2.10;;
7523;SDS011;3803;51.666;7.630;2022-07-26T01:08:10;3.72;;;2.10;;
7523;SDS011;3803;51.666;7.630;2022-07-26T01:08:43;3.65;;;2.30;;
7523;SDS011;3803;51.666;7.630;2022-07-26T01:09:24;4.60;;;2.55;;
7523;SDS011;3803;51.666;7.630;2022-07-26T01:09:50;5.15;;;2.55;;
7523;SDS011;3803;51.666;7.630;2022-07-26T01:10:14;5.10;;;2.60;;
7523;SDS011;3803;51.666;7.630;2022-07-26T01:10:48;5.53;;;2.50;;
7523;SDS011;3803;51.666;7.630;2022-07-26T01:11:39;4.10;;;2.45;;
7523;SDS011;3803;51.666;7.630;2022-07-26T01:12:23;4.63;;;2.40;;
7523;SDS011;3803;51.666;7.630;2022-07-26T01:12:49;6.00;;;2.40;;
7523;SDS011;3803;51.666;7.630;2022-07-26T01:13:28;7.25;;;2.70;;
7523;SDS011;3803;51.666;7.630;2022-07-26T01:13:52;4.88;;;2.60;;
7523;SDS011;3803;51.666;7.630;2022-07-26T01:14:35;6.28;;;2.60;;
7523;SDS011;3803;51.666;7.630;2022-07-26T01:15:06;6.28;;;2.70;;
7523;SDS011;3803;51.666;7.630;2022-07-26T01:15:35;7.93;;;2.55;;
7523;SDS011;3803;51.666;7.630;2022-07-26T01:15:59;9.20;;;2.35;;
7523;SDS011;3803;51.666;7.630;2022-07-26T01:16:31;5.65;;;2.10;;
7523;SDS011;3803;51.666;7.630;2022-07-26T01:17:05;7.65;;;2.67;;
7523;SDS011;3803;51.666;7.630;2022-07-26T01:17:33;7.53;;;3.30;;
7523;SDS011;3803;51.666;7.630;2022-07-26T01:18:15;4.00;;;2.90;;
7523;SDS011;3803;51.666;7.630;2022-07-26T01:18:47;4.22;;;2.50;;
7523;SDS011;3803;51.666;7.630;2022-07-26T01:19:13;4.68;;;2.40;;
7523;SDS011;3803;51.666;7.630;2022-07-26T01:19:52;5.80;;;2.70;;
7523;SDS011;3803;51.666;7.630;2022-07-26T01:20:28;6.03;;;2.83;;
7523;SDS011;3803;51.666;7.630;2022-07-26T01:20:58;9.32;;;2.67;;
7523;SDS011;3803;51.666;7.630;2022-07-26T01:21:35;9.85;;;2.60;;
7523;SDS011;3803;51.666;7.630;2022-07-26T01:22:08;5.30;;;2.60;;
7523;SDS011;3803;51.666;7.630;2022-07-26T01:22:41;5.88;;;2.70;;
7523;SDS011;3803;51.666;7.630;2022-07-26T01:23:09;7.18;;;3.00;;
7523;SDS011;3803;51.666;7.630;2022-07-26T01:23:55;5.43;;;2.75;;
7523;SDS011;3803;51.666;7.630;2022-07-26T01:24:24;5.93;;;2.60;;
7523;SDS011;3803;51.666;7.630;2022-07-26T01:24:58;6.75;;;2.33;;
7523;SDS011;3803;51.666;7.630;2022-07-26T01:25:43;5.75;;;2.55;;
7523;SDS011;3803;51.666;7.630;2022-07-26T01:26:07;5.25;;;2.60;;
7523;SDS011;3803;51.666;7.630;2022-07-26T01:26:40;5.35;;;2.60;;
7523;SDS011;3803;51.666;7.630;2022-07-26T01:27:22;6.38;;;2.90;;
7523;SDS011;3803;51.666;7.630;2022-07-26T01:27:51;5.55;;;2.83;;
7523;SDS011;3803;51.666;7.630;2022-07-26T01:28:19;4.20;;;2.60;;
7523;SDS011;3803;51.666;7.630;2022-07-26T01:28:45;4.32;;;2.58;;
7523;SDS011;3803;51.666;7.630;2022-07-26T01:29:14;6.95;;;2.70;;
7523;SDS011;3803;51.666;7.630;2022-07-26T01:29:40;8.27;;;3.00;;
7523;SDS011;3803;51.666;7.630;2022-07-26T01:30:11;6.70;;;2.90;;
7523;SDS011;3803;51.666;7.630;2022-07-26T01:30:39;6.05;;;2.60;;
7523;SDS011;3803;51.666;7.630;2022-07-26T01:31:10;7.75;;;2.80;;
7523;SDS011;3803;51.666;7.630;2022-07-26T01:31:43;6.68;;;2.80;;
7523;SDS011;3803;51.666;7.630;2022-07-26T01:32:21;4.80;;;2.40;;
7523;SDS011;3803;51.666;7.630;2022-07-26T01:32:53;4.90;;;2.50;;
7523;SDS011;3803;51.666;7.630;2022-07-26T01:33:19;6.50;;;2.70;;
7523;SDS011;3803;51.666;7.630;2022-07-26T01:33:45;6.10;;;2.67;;
7523;SDS011;3803;51.666;7.630;2022-07-26T01:34:08;5.47;;;2.75;;
7523;SDS011;3803;51.666;7.630;2022-07-26T01:34:33;3.90;;;2.50;;
7523;SDS011;3803;51.666;7.630;2022-07-26T01:35:13;4.10;;;2.53;;
7523;SDS011;3803;51.666;7.630;2022-07-26T01:35:34;4.40;;;2.70;;
7523;SDS011;3803;51.666;7.630;2022-07-26T01:36:00;3.80;;;2.60;;
7523;SDS011;3803;51.666;7.630;2022-07-26T01:36:44;3.80;;;2.80;;
7523;SDS011;3803;51.666;7.630;2022-07-26T01:37:10;6.70;;;3.10;;
7523;SDS011;3803;51.666;7.630;2022-07-26T01:37:50;8.32;;;3.28;;
7523;SDS011;3803;51.666;7.630;2022-07-26T01:38:14;6.68;;;3.08;;
7523;SDS011;3803;51.666;7.630;2022-07-26T01:39:00;3.53;;;2.38;;
7523;SDS011;3803;51.666;7.630;2022-07-26T01:39:23;5.20;;;2.60;;
7523;SDS011;3803;51.666;7.630;2022-07-26T01:39:58;6.57;;;2.90;;
7523;SDS011;3803;51.666;7.630;2022-07-26T01:40:46;5.03;;;2.75;;
7523;SDS011;3803;51.666;7.630;2022-07-26T01:41:22;3.80;;;2.70;;
7523;SDS011;3803;51.666;7.630;2022-07-26T01:41:56;4.70;;;2.83;;
7523;SDS011;3803;51.666;7.630;2022-07-26T01:42:39;6.00;;;2.60;;
7523;SDS011;3803;51.666;7.630;2022-07-26T01:43:05;5.10;;;2.58;;
7523;SDS011;3803;51.666;7.630;2022-07-26T01:43:25;4.18;;;2.50;;
7523;SDS011;3803;51.666;7.630;2022-07-26T01:43:48;5.22;;;2.78;;
7523;SDS011;3803;51.666;7.630;2022-07-26T01:44:19;6.55;;;3.20;;
7523;SDS011;3803;51.666;7.630;2022-07-26T01:44:52;4.80;;;2.80;;
7523;SDS011;3803;51.666;7.630;2022-07-26T01:45:16;4.10;;;2.50;;
7523;SDS011;3803;51.666;7.630;2022-07-26T01:45:46;5.97;;;2.60;;
7523;SDS011;3803;51.666;7.630;2022-07-26T01:46:09;5.97;;;2.63;;
7523;SDS011;3803;51.666;7.630;2022-07-26T01:46:53;5.07;;;2.70;;
7523;SDS011;3803;51.666;7.630;2022-07-26T01:47:19;5.93;;;2.80;;
7523;SDS011;3803;51.666;7.630;2022-07-26T01:48:00;7.80;;;2.80;;
7523;SDS011;3803;51.666;7.630;2022-07-26T01:48:48;4.22;;;2.72;;
7523;SDS011;3803;51.666;7.630;2022-07-26T01:49:19;4.90;;;2.80;;
7523;SDS011;3803;51.666;7.630;2022-07-26T01:49:40;6.15;;;3.00;;
7523;SDS011;3803;51.666;7.630;2022-07-26T01:50:04;6.32;;;2.70;;
7523;SDS011;3803;51.666;7.630;2022-07-26T01:50:26;5.53;;;2.50;;
7523;SDS011;3803;51.666;7.630;2022-07-26T01:51:01;4.43;;;2.75;;
7523;SDS011;3803;51.666;7.630;2022-07-26T01:51:34;5.95;;;2.80;;
7523;SDS011;3803;51.666;7.630;2022-07-26T01:52:10;5.68;;;2.50;;
7523;SDS011;3803;51.666;7.630;2022-07-26T01:52:42;3.45;;;2.60;;
7523;SDS011;3803;51.666;7.630;2022-07-26T01:53:23;5.65;;;3.00;;
7523;SDS011;3803;51.666;7.630;2022-07-26T01:53:44;7.75;;;3.42;;
7523;SDS011;3803;51.666;7.630;2022-07-26T01:55:03;5.88;;;2.78;;
7523;SDS011;3803;51.666;7.630;2022-07-26T01:55:29;5.13;;;2.90;;
7523;SDS011;3803;51.666;7.630;2022-07-26T01:56:05;5.10;;;2.80;;
7523;SDS011;3803;51.666;7.630;2022-07-26T01:56:48;7.50;;;2.90;;
7523;SDS011;3803;51.666;7.630;2022-07-26T01:57:09;8.20;;;2.67;;
7523;SDS011;3803;51.666;7.630;2022-07-26T01:57:33;6.82;;;2.60;;
7523;SDS011;3803;51.666;7.630;2022-07-26T01:58:14;5.40;;;2.72;;
7523;SDS011;3803;51.666;7.630;2022-07-26T01:58:57;5.82;;;2.83;;
7523;SDS011;3803;51.666;7.630;2022-07-26T01:59:33;6.72;;;2.88;;
7523;SDS011;3803;51.666;7.630;2022-07-26T02:00:27;6.10;;;3.20;;
7523;SDS011;3803;51.666;7.630;2022-07-26T02:00:59;6.45;;;2.72;;
7523;SDS011;3803;51.666;7.630;2022-07-26T02:01:29;5.53;;;2.63;;
7523;SDS011;3803;51.666;7.630;2022-07-26T02:02:19;5.85;;;3.17;;
7523;SDS011;3803;51.666;7.630;2022-07-26T02:03:07;4.07;;;2.70;;
7523;SDS011;3803;51.666;7.630;2022-07-26T02:03:33;4.50;;;2.80;;
7523;SDS011;3803;51.666;7.630;2022-07-26T02:04:12;5.05;;;2.78;;
7523;SDS011;3803;51.666;7.630;2022-07-26T02:05:00;5.25;;;2.70;;
7523;SDS011;3803;51.666;7.630;2022-07-26T02:05:37;4.65;;;2.80;;
7523;SDS011;3803;51.666;7.630;2022-07-26T02:06:10;5.72;;;2.95;;
7523;SDS011;3803;51.666;7.630;2022-07-26T02:06:46;5.18;;;3.20;;
7523;SDS011;3803;51.666;7.630;2022-07-26T02:07:09;5.87;;;3.27;;
7523;SDS011;3803;51.666;7.630;2022-07-26T02:07:36;7.63;;;3.10;;
7523;SDS011;3803;51.666;7.630;2022-07-26T02:08:03;8.98;;;3.08;;
7523;SDS011;3803;51.666;7.630;2022-07-26T02:08:24;7.45;;;2.90;;
7523;SDS011;3803;51.666;7.630;2022-07-26T02:08:50;7.00;;;2.75;;
7523;SDS011;3803;51.666;7.630;2022-07-26T02:09:21;6.50;;;2.90;;
7523;SDS011;3803;51.666;7.630;2022-07-26T02:09:42;6.82;;;2.90;;
7523;SDS011;3803;51.666;7.630;2022-07-26T02:10:12;7.00;;;3.08;;
7523;SDS011;3803;51.666;7.630;2022-07-26T02:10:36;7.47;;;2.80;;
7523;SDS011;3803;51.666;7.630;2022-07-26T02:11:21;8.68;;;2.40;;
7523;SDS011;3803;51.666;7.630;2022-07-26T02:11:42;7.43;;;2.50;;
7523;SDS011;3803;51.666;7.630;2022-07-26T02:12:13;7.65;;;2.60;;
7523;SDS011;3803;51.666;7.630;2022-07-26T02:12:56;4.70;;;2.75;;
7523;SDS011;3803;51.666;7.630;2022-07-26T02:13:23;6.53;;;2.90;;
7523;SDS011;3803;51.666;7.630;2022-07-26T02:13:56;6.68;;;2.85;;
7523;SDS011;3803;51.666;7.630;2022-07-26T02:14:29;6.13;;;2.90;;
7523;SDS011;3803;51.666;7.630;2022-07-26T02:15:00;5.70;;;2.67;;
7523;SDS011;3803;51.666;7.630;2022-07-26T02:15:26;5.00;;;2.50;;
7523;SDS011;3803;51.666;7.630;2022-07-26T02:15:49;3.88;;;2.30;;
7523;SDS011;3803;51.666;7.630;2022-07-26T02:16:15;7.13;;;2.63;;
7523;SDS011;3803;51.666;7.630;2022-07-26T02:16:38;7.90;;;2.85;;
7523;SDS011;3803;51.666;7.630;2022-07-26T02:17:06;6.45;;;3.22;;
7523;SDS011;3803;51.666;7.630;2022-07-26T02:17:34;4.10;;;2.90;;
7523;SDS011;3803;51.666;7.630;2022-07-26T02:17:57;5.63;;;2.70;;
7523;SDS011;3803;51.666;7.630;2022-07-26T02:18:55;5.07;;;2.50;;
7523;SDS011;3803;51.666;7.630;2022-07-26T02:19:39;6.07;;;2.90;;
7523;SDS011;3803;51.666;7.630;2022-07-26T02:20:11;4.38;;;2.60;;
7523;SDS011;3803;51.666;7.630;2022-07-26T02:20:48;5.35;;;2.70;;
7523;SDS011;3803;51.666;7.630;2022-07-26T02:21:40;6.68;;;2.97;;
7523;SDS011;3803;51.666;7.630;2022-07-26T02:22:15;9.15;;;3.30;;
7523;SDS011;3803;51.666;7.630;2022-07-26T02:22:54;5.33;;;2.97;;
7523;SDS011;3803;51.666;7.630;2022-07-26T02:23:26;3.67;;;2.70;;
7523;SDS011;3803;51.666;7.630;2022-07-26T02:24:17;5.90;;;3.30;;
7523;SDS011;3803;51.666;7.630;2022-07-26T02:24:50;5.10;;;3.20;;
7523;SDS011;3803;51.666;7.630;2022-07-26T02:25:18;4.82;;;3.00;;
7523;SDS011;3803;51.666;7.630;2022-07-26T02:25:49;5.00;;;3.20;;
7523;SDS011;3803;51.666;7.630;2022-07-26T02:26:23;4.80;;;3.25;;
7523;SDS011;3803;51.666;7.630;2022-07-26T02:26:46;5.35;;;3.20;;
7523;SDS011;3803;51.666;7.630;2022-07-26T02:27:24;6.50;;;3.20;;
7523;SDS011;3803;51.666;7.630;2022-07-26T02:27:58;5.47;;;3.00;;
7523;SDS011;3803;51.666;7.630;2022-07-26T02:28:22;5.25;;;3.10;;
7523;SDS011;3803;51.666;7.630;2022-07-26T02:28:55;7.05;;;3.42;;
7523;SDS011;3803;51.666;7.630;2022-07-26T02:29:24;9.35;;;3.72;;
7523;SDS011;3803;51.666;7.630;2022-07-26T02:29:48;8.10;;;3.72;;
7523;SDS011;3803;51.666;7.630;2022-07-26T02:30:27;6.13;;;3.53;;
7523;SDS011;3803;51.666;7.630;2022-07-26T02:30:50;7.30;;;3.80;;
7523;SDS011;3803;51.666;7.630;2022-07-26T02:31:21;8.52;;;3.90;;
7523;SDS011;3803;51.666;7.630;2022-07-26T02:31:49;7.25;;;3.50;;
7523;SDS011;3803;51.666;7.630;2022-07-26T02:32:19;6.28;;;3.10;;
7523;SDS011;3803;51.666;7.630;2022-07-26T02:32:47;6.40;;;3.10;;
7523;SDS011;3803;51.666;7.630;2022-07-26T02:33:51;5.40;;;3.20;;
7523;SDS011;3803;51.666;7.630;2022-07-26T02:34:27;4.55;;;3.10;;
7523;SDS011;3803;51.666;7.630;2022-07-26T02:35:12;4.78;;;3.40;;
7523;SDS011;3803;51.666;7.630;2022-07-26T02:35:42;4.82;;;3.20;;
7523;SDS011;3803;51.666;7.630;2022-07-26T02:36:29;5.60;;;3.30;;
7523;SDS011;3803;51.666;7.630;2022-07-26T02:37:10;4.80;;;3.10;;
7523;SDS011;3803;51.666;7.630;2022-07-26T02:37:46;7.70;;;3.60;;
7523;SDS011;3803;51.666;7.630;2022-07-26T02:38:10;7.95;;;3.60;;
7523;SDS011;3803;51.666;7.630;2022-07-26T02:38:37;5.90;;;3.35;;
7523;SDS011;3803;51.666;7.630;2022-07-26T02:38:58;5.70;;;3.30;;
7523;SDS011;3803;51.666;7.630;2022-07-26T02:39:21;7.03;;;3.45;;
7523;SDS011;3803;51.666;7.630;2022-07-26T02:39:52;8.25;;;3.50;;
7523;SDS011;3803;51.666;7.630;2022-07-26T02:40:30;7.80;;;3.50;;
7523;SDS011;3803;51.666;7.630;2022-07-26T02:41:06;7.00;;;3.50;;
7523;SDS011;3803;51.666;7.630;2022-07-26T02:41:49;6.43;;;3.63;;
7523;SDS011;3803;51.666;7.630;2022-07-26T02:42:13;7.30;;;3.42;;
7523;SDS011;3803;51.666;7.630;2022-07-26T02:42:34;6.60;;;3.25;;
7523;SDS011;3803;51.666;7.630;2022-07-26T02:42:57;5.32;;;3.33;;
7523;SDS011;3803;51.666;7.630;2022-07-26T02:43:18;5.40;;;3.40;;
7523;SDS011;3803;51.666;7.630;2022-07-26T02:43:44;7.63;;;3.50;;
7523;SDS011;3803;51.666;7.630;2022-07-26T02:44:30;7.32;;;3.33;;
7523;SDS011;3803;51.666;7.630;2022-07-26T02:44:54;6.90;;;3.40;;
7523;SDS011;3803;51.666;7.630;2022-07-26T02:45:29;8.27;;;3.42;;
7523;SDS011;3803;51.666;7.630;2022-07-26T02:45:57;6.68;;;3.17;;
7523;SDS011;3803;51.666;7.630;2022-07-26T02:46:24;5.28;;;3.20;;
7523;SDS011;3803;51.666;7.630;2022-07-26T02:47:00;9.18;;;3.50;;
7523;SDS011;3803;51.666;7.630;2022-07-26T02:47:28;9.40;;;3.50;;
7523;SDS011;3803;51.666;7.630;2022-07-26T02:47:58;5.93;;;3.22;;
7523;SDS011;3803;51.666;7.630;2022-07-26T02:48:31;5.28;;;3.05;;
7523;SDS011;3803;51.666;7.630;2022-07-26T02:48:55;7.15;;;3.20;;
7523;SDS011;3803;51.666;7.630;2022-07-26T02:49:29;7.35;;;3.30;;
7523;SDS011;3803;51.666;7.630;2022-07-26T02:50:03;5.25;;;3.00;;
7523;SDS011;3803;51.666;7.630;2022-07-26T02:50:34;5.28;;;3.20;;
7523;SDS011;3803;51.666;7.630;2022-07-26T02:50:58;6.07;;;3.38;;
7523;SDS011;3803;51.666;7.630;2022-07-26T02:51:24;7.03;;;3.40;;
7523;SDS011;3803;51.666;7.630;2022-07-26T02:51:58;5.88;;;3.40;;
7523;SDS011;3803;51.666;7.630;2022-07-26T02:52:23;5.85;;;3.38;;
7523;SDS011;3803;51.666;7.630;2022-07-26T02:53:22;7.25;;;3.55;;
7523;SDS011;3803;51.666;7.630;2022-07-26T02:53:51;7.82;;;3.38;;
7523;SDS011;3803;51.666;7.630;2022-07-26T02:54:24;6.57;;;3.40;;
7523;SDS011;3803;51.666;7.630;2022-07-26T02:56:02;8.50;;;3.50;;
7523;SDS011;3803;51.666;7.630;2022-07-26T02:56:28;6.82;;;3.40;;
7523;SDS011;3803;51.666;7.630;2022-07-26T02:56:59;6.10;;;3.65;;
7523;SDS011;3803;51.666;7.630;2022-07-26T02:57:27;6.00;;;3.70;;
7523;SDS011;3803;51.666;7.630;2022-07-26T02:58:15;7.78;;;3.60;;
7523;SDS011;3803;51.666;7.630;2022-07-26T02:58:54;6.22;;;3.20;;
7523;SDS011;3803;51.666;7.630;2022-07-26T02:59:27;5.30;;;3.40;;
7523;SDS011;3803;51.666;7.630;2022-07-26T02:59:55;8.25;;;4.00;;
7523;SDS011;3803;51.666;7.630;2022-07-26T03:00:49;10.07;;;3.97;;
7523;SDS011;3803;51.666;7.630;2022-07-26T03:01:39;3.92;;;3.13;;
7523;SDS011;3803;51.666;7.630;2022-07-26T03:02:43;5.30;;;3.80;;
7523;SDS011;3803;51.666;7.630;2022-07-26T03:03:14;6.00;;;3.60;;
7523;SDS011;3803;51.666;7.630;2022-07-26T03:04:14;9.80;;;3.70;;
7523;SDS011;3803;51.666;7.630;2022-07-26T03:04:53;7.85;;;3.60;;
7523;SDS011;3803;51.666;7.630;2022-07-26T03:05:56;6.78;;;3.83;;
7523;SDS011;3803;51.666;7.630;2022-07-26T03:06:19;8.40;;;3.83;;
7523;SDS011;3803;51.666;7.630;2022-07-26T03:06:49;6.47;;;3.58;;
7523;SDS011;3803;51.666;7.630;2022-07-26T03:07:22;5.50;;;3.60;;
7523;SDS011;3803;51.666;7.630;2022-07-26T03:07:50;6.47;;;3.78;;
7523;SDS011;3803;51.666;7.630;2022-07-26T03:08:17;6.90;;;4.20;;
7523;SDS011;3803;51.666;7.630;2022-07-26T03:08:58;6.60;;;4.20;;
7523;SDS011;3803;51.666;7.630;2022-07-26T03:09:21;6.72;;;3.90;;
7523;SDS011;3803;51.666;7.630;2022-07-26T03:10:02;9.13;;;4.15;;
7523;SDS011;3803;51.666;7.630;2022-07-26T03:10:49;7.00;;;3.95;;
7523;SDS011;3803;51.666;7.630;2022-07-26T03:11:14;7.05;;;4.00;;
7523;SDS011;3803;51.666;7.630;2022-07-26T03:11:56;5.45;;;3.80;;
7523;SDS011;3803;51.666;7.630;2022-07-26T03:12:39;6.68;;;4.20;;
7523;SDS011;3803;51.666;7.630;2022-07-26T03:13:35;7.80;;;4.30;;
7523;SDS011;3803;51.666;7.630;2022-07-26T03:14:06;7.40;;;4.00;;
7523;SDS011;3803;51.666;7.630;2022-07-26T03:14:33;8.50;;;4.30;;
7523;SDS011;3803;51.666;7.630;2022-07-26T03:15:04;7.15;;;4.50;;
7523;SDS011;3803;51.666;7.630;2022-07-26T03:15:42;7.80;;;4.38;;